Time;durP1;ratioP1;P1;durP2;ratioP2;P2;SDS_P1;SDS_P2;PMS_P1;PMS_P2;Temp;Humidity;BMP_temperature;BMP_pressure;BME280_temperature;BME280_humidity;BME280_pressure;Samples;Min_cycle;Max_cycle;Signal;HPM_P1;HPM_P2
2022/11/17 00:01:23;;;;;;;18.25;14.15;;;8.60;99.90;;;;;;7366920;19;20595;-43
2022/11/17 00:03:50;;;;;;;24.40;17.65;;;8.60;99.90;;;;;;7362994;19;20478;-43
2022/11/17 00:06:21;;;;;;;25.80;17.38;;;8.60;99.90;;;;;;7366455;19;20097;-43
2022/11/17 00:08:48;;;;;;;26.83;18.83;;;8.60;99.90;;;;;;7364561;19;20478;-46
2022/11/17 00:11:14;;;;;;;19.08;13.75;;;8.60;99.90;;;;;;7365337;19;20037;-44
2022/11/17 00:16:27;;;;;;;25.38;18.15;;;8.60;99.90;;;;;;7364321;19;20019;-44
2022/11/17 00:21:38;;;;;;;23.70;15.50;;;8.70;99.90;;;;;;7367892;19;20014;-45
2022/11/17 00:24:05;;;;;;;23.80;16.40;;;8.70;99.90;;;;;;7366789;19;20024;-44
2022/11/17 00:26:33;;;;;;;22.80;17.23;;;8.70;99.90;;;;;;7359632;19;20095;-42
2022/11/17 00:29:01;;;;;;;24.10;18.73;;;8.70;99.90;;;;;;7367844;19;20518;-45
2022/11/17 00:34:18;;;;;;;24.20;16.70;;;8.70;99.90;;;;;;7364559;19;20022;-42
2022/11/17 00:36:52;;;;;;;21.58;16.08;;;8.60;99.90;;;;;;7361310;19;20481;-43
2022/11/17 00:39:21;;;;;;;22.08;16.75;;;8.70;99.90;;;;;;7363603;19;20018;-44
2022/11/17 00:41:48;;;;;;;19.85;15.48;;;8.70;99.90;;;;;;7363472;19;20425;-42
2022/11/17 00:44:14;;;;;;;23.88;17.80;;;8.70;99.90;;;;;;7363174;19;20029;-44
2022/11/17 00:46:41;;;;;;;18.95;14.23;;;8.70;99.90;;;;;;7363650;19;20022;-42
2022/11/17 00:49:10;;;;;;;19.35;13.70;;;8.70;99.90;;;;;;7358706;19;20015;-43
2022/11/17 00:51:37;;;;;;;20.90;15.25;;;8.70;99.90;;;;;;7364822;19;20025;-45
2022/11/17 00:54:04;;;;;;;18.92;13.57;;;8.70;99.90;;;;;;7362163;19;20398;-43
2022/11/17 00:56:31;;;;;;;20.77;15.35;;;8.70;99.90;;;;;;7357060;19;20575;-42
2022/11/17 00:58:58;;;;;;;20.60;14.20;;;8.70;99.90;;;;;;7358446;19;20453;-45
2022/11/17 01:01:24;;;;;;;21.35;13.73;;;8.70;99.90;;;;;;7365498;19;20022;-43
2022/11/17 01:04:01;;;;;;;18.38;15.27;;;8.70;99.90;;;;;;7362212;19;20025;-44
2022/11/17 01:06:34;;;;;;;18.23;15.57;;;8.70;99.90;;;;;;7361992;19;20018;-42
2022/11/17 01:09:11;;;;;;;17.67;11.88;;;8.70;99.90;;;;;;7363715;19;20363;-42
2022/11/17 01:11:37;;;;;;;16.52;13.38;;;8.80;99.90;;;;;;7362714;19;20070;-41
2022/11/17 01:14:04;;;;;;;20.33;14.18;;;8.80;99.90;;;;;;7363815;19;20393;-42
2022/11/17 01:16:31;;;;;;;18.92;13.77;;;8.80;99.90;;;;;;7364426;19;20494;-42
2022/11/17 01:19:01;;;;;;;14.25;11.68;;;8.70;99.90;;;;;;7360599;19;20033;-43
2022/11/17 01:21:29;;;;;;;13.75;11.02;;;8.70;99.90;;;;;;7366152;19;20023;-42
2022/11/17 01:23:58;;;;;;;17.52;12.38;;;8.70;99.90;;;;;;7364990;19;20019;-41
2022/11/17 01:26:26;;;;;;;15.68;12.70;;;8.70;99.90;;;;;;7365920;19;20410;-44
2022/11/17 01:28:53;;;;;;;16.77;12.13;;;8.70;99.90;;;;;;7357861;19;20022;-43
2022/11/17 01:31:31;;;;;;;18.17;13.18;;;8.70;99.90;;;;;;7366342;19;20028;-41
2022/11/17 01:34:03;;;;;;;16.45;12.95;;;8.70;99.90;;;;;;7364824;19;20025;-43
2022/11/17 01:39:27;;;;;;;11.98;9.20;;;8.70;99.90;;;;;;7360141;19;20489;-42
2022/11/17 01:41:54;;;;;;;18.13;13.70;;;8.70;99.90;;;;;;7365291;19;20026;-44
2022/11/17 01:44:43;;;;;;;16.30;13.82;;;8.80;99.90;;;;;;7365320;19;20019;-50
2022/11/17 01:47:30;;;;;;;15.82;13.38;;;8.70;99.90;;;;;;7366318;19;20021;-46
2022/11/17 01:50:24;;;;;;;16.25;12.85;;;8.70;99.90;;;;;;7368086;19;20026;-42
2022/11/17 01:52:54;;;;;;;12.00;9.70;;;8.70;99.90;;;;;;7370924;19;20041;-42
2022/11/17 01:55:24;;;;;;;13.05;10.25;;;8.70;99.90;;;;;;7359349;19;20032;-43
2022/11/17 01:57:57;;;;;;;13.43;10.15;;;8.80;99.90;;;;;;7368528;19;20344;-42
2022/11/17 02:00:23;;;;;;;19.00;14.57;;;8.70;99.90;;;;;;7368796;19;20015;-42
2022/11/17 02:02:50;;;;;;;14.68;10.48;;;8.70;99.90;;;;;;7371720;19;20038;-43
2022/11/17 02:05:19;;;;;;;15.23;11.48;;;8.70;99.90;;;;;;7370190;19;20022;-43
2022/11/17 02:07:49;;;;;;;18.00;14.10;;;8.70;99.90;;;;;;7369833;19;20018;-43
2022/11/17 02:10:15;;;;;;;17.52;12.60;;;8.70;99.90;;;;;;7367225;19;20022;-47
2022/11/17 02:12:42;;;;;;;15.20;11.07;;;8.70;99.90;;;;;;7370125;19;20311;-44
2022/11/17 02:15:09;;;;;;;13.40;10.38;;;8.70;99.90;;;;;;7374278;19;20052;-45
2022/11/17 02:17:38;;;;;;;12.43;9.80;;;8.70;99.90;;;;;;7365688;19;20021;-43
2022/11/17 02:20:36;;;;;;;12.50;9.50;;;8.70;99.90;;;;;;7364805;19;20037;-44
2022/11/17 02:23:11;;;;;;;17.15;12.35;;;8.70;99.90;;;;;;7370823;19;20093;-46
2022/11/17 02:25:56;;;;;;;12.25;9.65;;;8.70;99.90;;;;;;7370510;19;20112;-43
2022/11/17 02:28:37;;;;;;;16.42;12.60;;;8.60;99.90;;;;;;7368833;19;20022;-42
2022/11/17 02:31:33;;;;;;;18.23;13.35;;;8.60;99.90;;;;;;7364597;19;20018;-46
2022/11/17 02:34:09;;;;;;;16.75;12.88;;;8.60;99.90;;;;;;7369320;19;20434;-44
2022/11/17 02:37:00;;;;;;;16.70;13.68;;;8.50;99.90;;;;;;7370659;19;20603;-44
2022/11/17 02:39:37;;;;;;;13.20;9.05;;;8.50;99.90;;;;;;7367364;19;20093;-43
2022/11/17 02:42:13;;;;;;;16.63;13.38;;;8.50;99.90;;;;;;7370419;19;20033;-46
2022/11/17 02:44:59;;;;;;;21.05;14.60;;;8.50;99.90;;;;;;7372070;19;20041;-43
2022/11/17 02:47:29;;;;;;;17.58;13.60;;;8.40;99.90;;;;;;7364985;19;20050;-45
2022/11/17 02:50:06;;;;;;;19.95;15.85;;;8.40;99.90;;;;;;7369953;19;20521;-45
2022/11/17 02:52:33;;;;;;;15.85;11.90;;;8.30;99.90;;;;;;7363769;19;20022;-43
2022/11/17 02:55:01;;;;;;;17.77;13.40;;;8.30;99.90;;;;;;7370500;19;20031;-43
2022/11/17 02:57:37;;;;;;;16.25;12.43;;;8.30;99.90;;;;;;7364621;19;20078;-45
2022/11/17 03:00:04;;;;;;;19.52;13.45;;;8.20;99.90;;;;;;7361670;19;20022;-43
2022/11/17 03:02:43;;;;;;;14.48;10.70;;;8.20;99.90;;;;;;7367555;19;20502;-44
2022/11/17 03:05:25;;;;;;;23.35;15.95;;;8.20;99.90;;;;;;7368344;19;20014;-43
2022/11/17 03:08:13;;;;;;;17.52;12.82;;;8.20;99.90;;;;;;7366876;19;20484;-45
2022/11/17 03:11:02;;;;;;;20.17;14.65;;;8.20;99.90;;;;;;7367303;19;20490;-46
2022/11/17 03:13:47;;;;;;;18.33;14.60;;;8.20;99.90;;;;;;7367796;19;20018;-44
2022/11/17 03:16:24;;;;;;;16.65;12.60;;;8.20;99.90;;;;;;7365610;19;20025;-46
2022/11/17 03:19:17;;;;;;;19.23;15.68;;;8.20;99.90;;;;;;7366425;19;20027;-43
2022/11/17 03:22:01;;;;;;;19.48;14.10;;;8.20;99.90;;;;;;7368109;19;20014;-43
2022/11/17 03:24:28;;;;;;;21.15;15.70;;;8.10;99.90;;;;;;7365540;19;20025;-44
2022/11/17 03:27:08;;;;;;;19.70;15.35;;;8.10;99.90;;;;;;7367361;19;20539;-44
2022/11/17 03:29:39;;;;;;;21.63;13.32;;;8.10;99.90;;;;;;7366127;19;20360;-45
2022/11/17 03:32:08;;;;;;;19.65;13.65;;;8.10;99.90;;;;;;7366263;19;20352;-47
2022/11/17 03:34:44;;;;;;;14.88;11.63;;;8.10;99.90;;;;;;7366557;19;20719;-45
2022/11/17 03:37:14;;;;;;;18.80;14.15;;;8.00;99.90;;;;;;7365822;19;20028;-45
2022/11/17 03:39:44;;;;;;;22.55;16.70;;;8.00;99.90;;;;;;7365044;19;20502;-43
2022/11/17 03:42:14;;;;;;;;;;;8.00;99.90;;;;;;7364246;19;20029;-46
2022/11/17 03:44:45;;;;;;;18.73;13.70;;;8.00;99.90;;;;;;7364277;19;19931;-44
2022/11/17 03:47:12;;;;;;;17.45;13.25;;;7.90;99.90;;;;;;7368243;19;20044;-46
2022/11/17 03:49:44;;;;;;;15.88;12.52;;;7.90;99.90;;;;;;7362090;19;20729;-44
2022/11/17 03:52:11;;;;;;;10.90;7.20;;;8.00;99.90;;;;;;7368553;19;20014;-45
2022/11/17 03:54:39;;;;;;;14.95;10.63;;;8.00;99.90;;;;;;7364648;19;20041;-48
2022/11/17 03:57:13;;;;;;;20.95;13.27;;;7.90;99.90;;;;;;7369517;19;20035;-44
2022/11/17 03:59:46;;;;;;;17.00;13.80;;;8.00;99.90;;;;;;7363600;19;20018;-45
2022/11/17 04:02:17;;;;;;;17.90;14.55;;;7.90;99.90;;;;;;7365848;19;20637;-48
2022/11/17 04:07:29;;;;;;;17.60;13.98;;;8.00;99.90;;;;;;7364925;19;20019;-45
2022/11/17 04:09:55;;;;;;;18.17;12.95;;;7.90;99.90;;;;;;7363552;19;20035;-44
2022/11/17 04:17:59;;;;;;;16.83;13.10;;;7.90;99.90;;;;;;7363705;19;20393;-42
2022/11/17 04:20:25;;;;;;;19.52;14.13;;;7.90;99.90;;;;;;7365304;19;20018;-49
2022/11/17 04:23:07;;;;;;;16.17;13.45;;;7.90;99.90;;;;;;7369837;19;20045;-44
2022/11/17 04:28:35;;;;;;;14.35;11.23;;;7.90;99.90;;;;;;7364582;19;20042;-44
2022/11/17 04:31:23;;;;;;;13.30;10.27;;;7.90;99.90;;;;;;7363934;19;20019;-46
2022/11/17 04:33:55;;;;;;;15.88;11.35;;;7.90;99.90;;;;;;7364829;19;20094;-46
2022/11/17 04:36:23;;;;;;;;;;;7.80;99.90;;;;;;7362563;19;20014;-48
2022/11/17 04:38:52;;;;;;;11.52;8.40;;;7.90;99.90;;;;;;7365948;19;19927;-45
2022/11/17 04:44:06;;;;;;;13.63;11.32;;;7.80;99.90;;;;;;7363196;19;20098;-46
2022/11/17 04:46:35;;;;;;;14.23;11.82;;;7.80;99.90;;;;;;7362900;19;20034;-44
2022/11/17 04:49:03;;;;;;;14.77;13.18;;;7.80;99.90;;;;;;7363427;19;20021;-46
2022/11/17 04:51:30;;;;;;;11.23;9.52;;;7.80;99.90;;;;;;7364092;19;20010;-47
2022/11/17 04:53:57;;;;;;;14.32;11.38;;;7.80;99.90;;;;;;7365485;19;20014;-48
2022/11/17 04:56:25;;;;;;;14.13;10.27;;;7.80;99.90;;;;;;7366237;19;20481;-45
2022/11/17 04:58:52;;;;;;;13.43;9.98;;;7.80;99.90;;;;;;7360560;19;20018;-45
2022/11/17 05:01:21;;;;;;;14.55;11.63;;;7.70;99.90;;;;;;7361782;19;20450;-44
2022/11/17 05:03:50;;;;;;;10.82;9.43;;;7.70;99.90;;;;;;7367583;19;20018;-45
2022/11/17 05:06:18;;;;;;;11.25;9.65;;;7.70;99.90;;;;;;7363188;19;20030;-43
2022/11/17 05:08:45;;;;;;;14.25;11.27;;;7.70;99.90;;;;;;7358913;19;20509;-43
2022/11/17 05:14:00;;;;;;;13.40;10.05;;;7.70;99.90;;;;;;7366733;19;20062;-44
2022/11/17 05:19:20;;;;;;;9.32;7.78;;;7.70;99.90;;;;;;7363187;19;20014;-45
2022/11/17 05:21:47;;;;;;;11.77;9.93;;;7.60;99.90;;;;;;7366400;19;20014;-48
2022/11/17 05:24:13;;;;;;;12.68;10.73;;;7.60;99.90;;;;;;7371154;19;20031;-45
2022/11/17 05:26:41;;;;;;;11.27;9.73;;;7.60;99.90;;;;;;7371703;19;20444;-44
2022/11/17 05:29:09;;;;;;;9.63;7.88;;;7.60;99.90;;;;;;7367239;19;20134;-45
2022/11/17 05:31:36;;;;;;;12.70;8.63;;;7.50;99.90;;;;;;7370779;19;20022;-45
2022/11/17 05:34:04;;;;;;;15.05;10.73;;;7.50;99.90;;;;;;7370976;19;20553;-45
2022/11/17 05:36:31;;;;;;;9.40;7.47;;;7.50;99.90;;;;;;7367847;19;20026;-46
2022/11/17 05:39:02;;;;;;;11.02;9.85;;;7.50;99.90;;;;;;7370170;19;20102;-44
2022/11/17 05:41:29;;;;;;;13.52;7.80;;;7.40;99.90;;;;;;7367659;19;20014;-45
2022/11/17 05:43:55;;;;;;;12.13;8.95;;;7.40;99.90;;;;;;7370718;19;20137;-49
2022/11/17 05:46:25;;;;;;;10.98;9.07;;;7.40;99.90;;;;;;7372558;19;20446;-47
2022/11/17 05:48:52;;;;;;;11.88;8.75;;;7.40;99.90;;;;;;7363825;19;20018;-44
2022/11/17 05:51:21;;;;;;;8.52;6.85;;;7.40;99.90;;;;;;7370109;19;20074;-46
2022/11/17 05:53:48;;;;;;;12.82;9.32;;;7.30;99.90;;;;;;7369927;19;20055;-46
2022/11/17 05:56:36;;;;;;;10.60;8.88;;;7.40;99.90;;;;;;7369609;19;20474;-48
2022/11/17 05:59:19;;;;;;;12.40;9.90;;;7.30;99.90;;;;;;7367168;19;20647;-45
2022/11/17 06:01:56;;;;;;;11.32;9.05;;;7.30;99.90;;;;;;7371405;19;20057;-44
2022/11/17 06:04:23;;;;;;;10.20;8.88;;;7.30;99.90;;;;;;7370680;19;20019;-46
2022/11/17 06:06:50;;;;;;;13.15;9.77;;;7.30;99.90;;;;;;7368785;19;21377;-47
2022/11/17 06:09:16;;;;;;;14.05;10.95;;;7.20;99.90;;;;;;7365729;19;20102;-44
2022/11/17 06:11:43;;;;;;;8.45;7.57;;;7.20;99.90;;;;;;7365442;19;20022;-45
2022/11/17 06:14:09;;;;;;;10.32;9.23;;;7.20;99.90;;;;;;7371500;19;20868;-45
2022/11/17 06:16:39;;;;;;;8.88;7.22;;;7.20;99.90;;;;;;7367673;19;20018;-49
2022/11/17 06:19:10;;;;;;;11.35;9.85;;;7.20;99.90;;;;;;7367511;19;20026;-47
2022/11/17 06:21:37;;;;;;;10.43;8.20;;;7.10;99.90;;;;;;7367587;19;20018;-45
2022/11/17 06:24:05;;;;;;;9.38;6.38;;;7.10;99.90;;;;;;7366302;19;20022;-48
2022/11/17 06:26:33;;;;;;;6.70;5.32;;;7.10;99.90;;;;;;7367386;19;20035;-46
2022/11/17 06:29:01;;;;;;;11.27;9.27;;;7.10;99.90;;;;;;7366854;19;20042;-43
2022/11/17 06:31:27;;;;;;;14.20;10.85;;;7.10;99.90;;;;;;7368263;19;20019;-45
2022/11/17 06:33:54;;;;;;;14.07;10.57;;;7.10;99.90;;;;;;7367210;19;20042;-45
2022/11/17 06:36:21;;;;;;;16.25;12.73;;;7.00;99.90;;;;;;7369434;19;20018;-45
2022/11/17 06:38:48;;;;;;;9.55;7.45;;;7.10;99.90;;;;;;7369459;19;20025;-45
2022/11/17 06:41:14;;;;;;;12.93;10.45;;;7.00;99.90;;;;;;7369405;19;21036;-45
2022/11/17 06:43:41;;;;;;;11.40;9.77;;;7.10;99.90;;;;;;7368137;19;20482;-44
2022/11/17 06:46:07;;;;;;;12.52;9.68;;;7.10;99.90;;;;;;7368863;19;20026;-46
2022/11/17 06:48:34;;;;;;;11.32;9.63;;;7.00;99.90;;;;;;7367685;19;20022;-46
2022/11/17 06:51:04;;;;;;;14.20;11.52;;;7.10;99.90;;;;;;7365840;19;20022;-46
2022/11/17 06:53:33;;;;;;;10.75;9.18;;;7.00;99.90;;;;;;7366943;19;20408;-48
2022/11/17 06:56:06;;;;;;;8.18;6.22;;;7.10;99.90;;;;;;7370307;19;20572;-47
2022/11/17 06:58:34;;;;;;;10.98;7.55;;;7.10;99.90;;;;;;7363857;19;20025;-44
2022/11/17 07:01:05;;;;;;;12.52;10.02;;;7.00;99.90;;;;;;7368673;19;20085;-46
2022/11/17 07:03:33;;;;;;;12.30;10.05;;;7.10;99.90;;;;;;7365377;19;20029;-45
2022/11/17 07:06:01;;;;;;;14.35;11.07;;;7.10;99.90;;;;;;7369127;19;20578;-48
2022/11/17 07:08:28;;;;;;;11.18;8.98;;;7.10;99.90;;;;;;7362172;19;20046;-46
2022/11/17 07:10:59;;;;;;;15.25;11.80;;;7.00;99.90;;;;;;7365636;19;20018;-45
2022/11/17 07:13:26;;;;;;;10.27;8.80;;;7.00;99.90;;;;;;7365295;19;20050;-47
2022/11/17 07:15:52;;;;;;;12.95;10.00;;;7.10;99.90;;;;;;7365886;19;20526;-47
2022/11/17 07:18:19;;;;;;;19.67;15.45;;;7.00;99.90;;;;;;7365559;19;20018;-46
2022/11/17 07:20:46;;;;;;;12.02;9.13;;;7.00;99.90;;;;;;7367330;19;20026;-46
2022/11/17 07:23:13;;;;;;;12.80;10.85;;;7.00;99.90;;;;;;7369828;19;20029;-45
2022/11/17 07:25:40;;;;;;;12.82;9.32;;;7.10;99.90;;;;;;7364709;19;20528;-45
2022/11/17 07:28:06;;;;;;;19.55;14.77;;;7.10;99.90;;;;;;7363486;19;20482;-44
2022/11/17 07:30:33;;;;;;;9.45;8.02;;;7.10;99.90;;;;;;7359419;19;20352;-47
2022/11/17 07:33:00;;;;;;;13.93;12.38;;;7.10;99.90;;;;;;7363951;19;20096;-45
2022/11/17 07:35:27;;;;;;;9.68;7.93;;;7.10;99.90;;;;;;7367654;19;20403;-45
2022/11/17 07:38:00;;;;;;;10.90;8.20;;;7.10;99.90;;;;;;7367901;19;20030;-44
2022/11/17 07:40:28;;;;;;;8.05;6.88;;;7.10;99.90;;;;;;7363934;19;20025;-45
2022/11/17 07:42:54;;;;;;;8.05;5.30;;;7.20;99.90;;;;;;7364199;19;20081;-47
2022/11/17 07:45:22;;;;;;;9.55;7.00;;;7.10;99.90;;;;;;7360491;19;20053;-44
2022/11/17 07:47:56;;;;;;;11.68;8.10;;;7.20;99.90;;;;;;7363732;19;20115;-44
2022/11/17 07:50:23;;;;;;;10.90;8.10;;;7.20;99.90;;;;;;7360543;19;20029;-45
2022/11/17 07:52:51;;;;;;;11.25;8.98;;;7.20;99.90;;;;;;7367549;19;20023;-49
2022/11/17 07:55:17;;;;;;;11.25;8.98;;;7.10;99.90;;;;;;7363825;19;20070;-45
2022/11/17 07:57:45;;;;;;;10.02;7.63;;;7.20;99.90;;;;;;7368001;19;20026;-44
2022/11/17 08:00:17;;;;;;;8.75;7.57;;;7.20;99.90;;;;;;7364703;19;20053;-46
2022/11/17 08:02:45;;;;;;;8.38;7.32;;;7.20;99.90;;;;;;7369437;19;20019;-42
2022/11/17 08:05:11;;;;;;;15.30;11.63;;;7.10;99.90;;;;;;7364836;19;20020;-45
2022/11/17 08:07:38;;;;;;;10.80;8.05;;;7.20;99.90;;;;;;7367285;19;20501;-42
2022/11/17 08:10:05;;;;;;;8.82;7.75;;;7.10;99.90;;;;;;7361659;19;20406;-44
2022/11/17 08:12:32;;;;;;;10.77;9.27;;;7.10;99.90;;;;;;7366159;19;20126;-42
2022/11/17 08:14:58;;;;;;;9.90;7.35;;;7.10;99.90;;;;;;7364714;19;20377;-43
2022/11/17 08:17:24;;;;;;;11.55;8.38;;;7.10;99.90;;;;;;7369182;19;20575;-43
2022/11/17 08:19:51;;;;;;;9.35;8.30;;;7.10;99.90;;;;;;7366121;19;20063;-44
2022/11/17 08:22:17;;;;;;;9.23;8.27;;;7.10;99.90;;;;;;7368463;19;20346;-45
2022/11/17 08:24:46;;;;;;;10.63;9.52;;;7.10;99.90;;;;;;7367499;19;20025;-45
2022/11/17 08:27:13;;;;;;;11.45;9.18;;;7.10;99.90;;;;;;7367782;19;20018;-45
2022/11/17 08:29:39;;;;;;;10.25;7.97;;;7.10;99.90;;;;;;7361070;19;20026;-46
2022/11/17 08:32:05;;;;;;;10.52;8.88;;;7.10;99.90;;;;;;7363416;19;20015;-45
2022/11/17 08:34:32;;;;;;;9.15;7.13;;;7.10;99.90;;;;;;7366299;19;20022;-44
2022/11/17 08:36:59;;;;;;;12.18;9.60;;;7.10;99.90;;;;;;7365948;19;20027;-44
2022/11/17 08:39:26;;;;;;;13.30;9.80;;;7.10;99.90;;;;;;7370764;19;20022;-45
2022/11/17 08:41:52;;;;;;;16.00;13.63;;;7.10;99.90;;;;;;7365569;19;20018;-45
2022/11/17 08:44:19;;;;;;;12.27;8.90;;;7.10;99.90;;;;;;7368616;19;20029;-45
2022/11/17 08:46:45;;;;;;;11.95;9.45;;;7.10;99.90;;;;;;7368787;19;20033;-47
2022/11/17 08:49:12;;;;;;;11.68;9.13;;;7.10;99.90;;;;;;7365869;19;20073;-48
2022/11/17 08:51:38;;;;;;;12.68;10.25;;;7.10;99.90;;;;;;7366417;19;20042;-45
2022/11/17 08:54:05;;;;;;;15.90;12.85;;;7.10;99.90;;;;;;7368967;19;20019;-46
2022/11/17 08:56:31;;;;;;;12.77;10.48;;;7.10;99.90;;;;;;7373288;19;20474;-44
2022/11/17 08:58:58;;;;;;;10.30;9.20;;;7.10;99.90;;;;;;7376789;19;20494;-46
2022/11/17 09:01:24;;;;;;;9.13;7.60;;;7.10;99.90;;;;;;7369758;19;20755;-48
2022/11/17 09:03:51;;;;;;;10.07;7.80;;;7.10;99.90;;;;;;7374920;19;20017;-48
2022/11/17 09:06:18;;;;;;;10.90;8.20;;;7.20;99.90;;;;;;7372958;19;20046;-47
2022/11/17 09:08:45;;;;;;;10.95;9.70;;;7.20;99.90;;;;;;7373316;19;20465;-48
2022/11/17 09:11:13;;;;;;;9.18;7.15;;;7.20;99.90;;;;;;7373294;19;20464;-47
2022/11/17 09:13:40;;;;;;;11.90;9.18;;;7.20;99.90;;;;;;7375394;19;20488;-41
2022/11/17 09:16:09;;;;;;;9.55;7.70;;;7.20;99.90;;;;;;7376463;19;20573;-41
2022/11/17 09:18:39;;;;;;;8.52;6.47;;;7.20;99.90;;;;;;7372351;19;20021;-40
2022/11/17 09:21:12;;;;;;;10.23;9.13;;;7.20;99.90;;;;;;7376130;19;20025;-49
2022/11/17 09:23:39;;;;;;;10.25;7.90;;;7.20;99.90;;;;;;7369636;19;20019;-44
2022/11/17 09:26:10;;;;;;;9.15;8.05;;;7.20;99.90;;;;;;7379603;19;20485;-50
2022/11/17 09:28:37;;;;;;;;;;;7.20;99.90;;;;;;7373949;19;20034;-47
2022/11/17 09:31:08;;;;;;;8.25;7.30;;;7.20;99.90;;;;;;7375146;19;19925;-45
2022/11/17 09:33:35;;;;;;;10.45;7.95;;;7.20;99.90;;;;;;7371675;19;20359;-40
2022/11/17 09:36:02;;;;;;;12.88;8.95;;;7.20;99.90;;;;;;7373316;19;20039;-40
2022/11/17 09:38:29;;;;;;;9.60;8.52;;;7.20;99.90;;;;;;7374427;19;20760;-41
2022/11/17 09:40:57;;;;;;;7.40;5.68;;;7.20;99.90;;;;;;7368974;19;20544;-40
2022/11/17 09:43:29;;;;;;;8.85;6.82;;;7.30;99.90;;;;;;7374976;19;20640;-45
2022/11/17 09:46:15;;;;;;;8.27;7.35;;;7.30;99.90;;;;;;7378471;19;20474;-45
2022/11/17 09:48:57;;;;;;;9.75;8.05;;;7.30;99.90;;;;;;7378310;19;20641;-46
2022/11/17 09:51:28;;;;;;;9.73;7.78;;;7.40;99.90;;;;;;7373701;19;20022;-48
2022/11/17 09:54:10;;;;;;;9.02;7.85;;;7.30;99.90;;;;;;7374431;19;20482;-46
2022/11/17 09:56:39;;;;;;;9.73;7.97;;;7.30;99.90;;;;;;7373746;19;20018;-49
2022/11/17 09:59:11;;;;;;;10.35;8.07;;;7.40;99.90;;;;;;7371716;19;20046;-45
2022/11/17 10:01:37;;;;;;;8.25;6.95;;;7.40;99.90;;;;;;7369576;19;20533;-49
2022/11/17 10:04:11;;;;;;;10.85;8.35;;;7.40;99.90;;;;;;7374876;19;20374;-42
2022/11/17 10:06:40;;;;;;;9.18;7.80;;;7.40;99.90;;;;;;7371151;19;20018;-46
2022/11/17 10:09:37;;;;;;;9.50;8.35;;;7.40;99.90;;;;;;7369127;19;20751;-46
2022/11/17 10:12:29;;;;;;;9.25;6.60;;;7.50;99.90;;;;;;7368794;19;20030;-46
2022/11/17 10:14:57;;;;;;;8.68;6.90;;;7.50;99.90;;;;;;7368673;19;20505;-40
2022/11/17 10:17:23;;;;;;;9.95;7.78;;;7.50;99.90;;;;;;7366777;19;20027;-42
2022/11/17 10:19:50;;;;;;;10.27;8.20;;;7.50;99.90;;;;;;7368097;19;20070;-42
2022/11/17 10:22:25;;;;;;;7.30;6.53;;;7.50;99.90;;;;;;7366443;19;20022;-41
2022/11/17 10:24:57;;;;;;;9.25;7.65;;;7.40;99.90;;;;;;7373348;19;20038;-41
2022/11/17 10:27:29;;;;;;;10.05;7.95;;;7.40;99.90;;;;;;7369454;19;20369;-40
2022/11/17 10:30:15;;;;;;;9.82;8.20;;;7.40;99.90;;;;;;7363432;19;20129;-40
2022/11/17 10:32:54;;;;;;;8.57;7.05;;;7.40;99.90;;;;;;7366108;19;20023;-40
2022/11/17 10:35:29;;;;;;;10.57;8.30;;;7.40;99.90;;;;;;7366560;19;20022;-40
2022/11/17 10:38:11;;;;;;;9.77;7.50;;;7.50;99.90;;;;;;7369346;19;20033;-42
2022/11/17 10:40:38;;;;;;;16.10;13.25;;;7.50;99.90;;;;;;7361724;19;20022;-44
2022/11/17 10:43:23;;;;;;;9.80;7.88;;;7.60;99.90;;;;;;7357052;19;21047;-42
2022/11/17 10:46:04;;;;;;;9.35;8.27;;;7.70;99.90;;;;;;7363431;19;20015;-48
2022/11/17 10:48:36;;;;;;;7.97;6.57;;;7.80;99.90;;;;;;7368125;19;20019;-46
2022/11/17 10:51:08;;;;;;;9.18;7.55;;;7.80;99.90;;;;;;7369242;19;20486;-51
2022/11/17 10:53:40;;;;;;;10.77;9.00;;;7.80;99.90;;;;;;7366375;19;20389;-47
2022/11/17 10:56:14;;;;;;;9.48;8.48;;;7.80;99.90;;;;;;7365511;19;20364;-51
2022/11/17 10:59:13;;;;;;;8.43;7.25;;;7.70;99.90;;;;;;7364131;19;20022;-47
2022/11/17 11:01:45;;;;;;;8.73;6.90;;;7.70;99.90;;;;;;7360768;19;20569;-46
2022/11/17 11:04:29;;;;;;;10.48;9.15;;;7.70;99.90;;;;;;7368017;19;20058;-47
2022/11/17 11:07:05;;;;;;;9.50;7.90;;;7.80;99.90;;;;;;7367356;19;20043;-46
2022/11/17 11:09:34;;;;;;;14.13;10.90;;;7.80;99.90;;;;;;7363180;19;20097;-47
2022/11/17 11:12:04;;;;;;;11.43;7.28;;;7.80;99.90;;;;;;7365395;19;20043;-41
2022/11/17 11:14:40;;;;;;;8.68;7.30;;;7.80;99.90;;;;;;7366429;19;20018;-42
2022/11/17 11:17:15;;;;;;;10.05;7.63;;;7.80;99.90;;;;;;7364951;19;20018;-42
2022/11/17 11:19:47;;;;;;;5.78;4.97;;;7.90;99.90;;;;;;7362752;19;20014;-42
2022/11/17 11:22:26;;;;;;;5.03;4.18;;;7.80;99.90;;;;;;7365233;19;20023;-44
2022/11/17 11:25:32;;;;;;;10.18;6.35;;;7.90;99.90;;;;;;7364943;19;20014;-43
2022/11/17 11:28:10;;;;;;;8.43;5.15;;;7.90;99.90;;;;;;7366392;19;20022;-44
2022/11/17 11:30:57;;;;;;;8.85;6.63;;;7.90;99.90;;;;;;7360878;19;20907;-41
2022/11/17 11:33:33;;;;;;;9.07;8.15;;;7.90;99.90;;;;;;7362564;19;20458;-42
2022/11/17 11:36:24;;;;;;;9.30;6.28;;;7.90;99.90;;;;;;7364310;19;20043;-42
2022/11/17 11:39:05;;;;;;;11.38;7.70;;;7.90;99.90;;;;;;7365242;19;20015;-44
2022/11/17 11:41:40;;;;;;;7.38;6.43;;;8.00;99.90;;;;;;7363510;19;20513;-43
2022/11/17 11:44:39;;;;;;;8.63;7.15;;;8.00;99.90;;;;;;7361052;19;20530;-43
2022/11/17 11:47:44;;;;;;;7.85;5.80;;;8.00;99.90;;;;;;7357247;19;20589;-44
2022/11/17 11:50:31;;;;;;;10.07;7.40;;;8.10;99.90;;;;;;7363752;19;20847;-43
2022/11/17 11:53:36;;;;;;;13.10;9.75;;;8.10;99.90;;;;;;7366044;19;20366;-43
2022/11/17 11:56:47;;;;;;;6.47;5.38;;;8.10;99.90;;;;;;7365862;19;20101;-45
2022/11/17 11:59:25;;;;;;;9.50;7.35;;;8.10;99.90;;;;;;7364780;19;20081;-51
2022/11/17 12:02:11;;;;;;;11.27;8.57;;;8.20;99.90;;;;;;7362692;19;20820;-51
2022/11/17 12:04:49;;;;;;;9.80;8.13;;;8.30;99.90;;;;;;7362815;19;20019;-48
2022/11/17 12:07:19;;;;;;;10.18;7.95;;;8.30;99.90;;;;;;7359928;19;20532;-51
2022/11/17 12:10:00;;;;;;;13.23;10.23;;;8.40;99.90;;;;;;7361747;19;20071;-50
2022/11/17 12:12:32;;;;;;;12.13;9.10;;;8.50;99.90;;;;;;7357077;19;20542;-43
2022/11/17 12:15:11;;;;;;;10.85;8.77;;;8.50;99.90;;;;;;7359229;19;20477;-46
2022/11/17 12:17:53;;;;;;;13.75;10.23;;;8.60;99.90;;;;;;7359400;19;20468;-52
2022/11/17 12:20:39;;;;;;;13.07;9.32;;;8.60;99.90;;;;;;7362224;19;20556;-50
2022/11/17 12:23:08;;;;;;;11.10;9.38;;;8.70;99.90;;;;;;7365132;19;20032;-46
2022/11/17 12:25:42;;;;;;;12.23;9.13;;;8.80;99.90;;;;;;7366481;19;20980;-51
2022/11/17 12:28:40;;;;;;;12.23;9.35;;;8.80;99.90;;;;;;7365814;19;20043;-43
2022/11/17 12:31:31;;;;;;;11.20;8.68;;;9.00;99.90;;;;;;7358252;19;20025;-44
2022/11/17 12:34:00;;;;;;;13.57;8.98;;;9.00;99.90;;;;;;7366335;19;20018;-42
2022/11/17 12:36:30;;;;;;;13.85;9.30;;;9.10;99.90;;;;;;7360049;19;20608;-44
2022/11/17 12:39:03;;;;;;;13.55;9.45;;;9.10;99.90;;;;;;7358996;19;20018;-43
2022/11/17 12:41:48;;;;;;;12.02;8.85;;;9.20;99.90;;;;;;7356524;19;20082;-44
2022/11/17 12:44:37;;;;;;;14.32;9.70;;;9.20;99.90;;;;;;7357878;19;20026;-44
2022/11/17 12:47:16;;;;;;;12.93;9.38;;;9.30;99.90;;;;;;7364917;19;20019;-51
2022/11/17 12:50:12;;;;;;;13.25;9.98;;;9.30;99.90;;;;;;7359991;19;20476;-52
2022/11/17 12:52:56;;;;;;;12.48;9.10;;;9.40;99.90;;;;;;7358868;19;20473;-51
2022/11/17 12:55:29;;;;;;;12.70;9.40;;;9.40;99.90;;;;;;7361880;19;20414;-50
2022/11/17 12:58:17;;;;;;;16.77;10.10;;;9.40;99.90;;;;;;7364542;19;20019;-46
2022/11/17 13:01:03;;;;;;;14.45;9.23;;;9.40;99.90;;;;;;7366638;19;20044;-46
2022/11/17 13:03:41;;;;;;;14.43;6.93;;;9.50;99.90;;;;;;7362185;19;20018;-43
2022/11/17 13:06:13;;;;;;;9.65;8.13;;;9.50;99.90;;;;;;7365713;19;20022;-44
2022/11/17 13:09:00;;;;;;;9.82;6.70;;;9.60;99.90;;;;;;7363137;19;20027;-43
2022/11/17 13:11:28;;;;;;;11.77;7.47;;;9.60;99.90;;;;;;7361404;19;20617;-45
2022/11/17 13:14:08;;;;;;;11.30;6.97;;;9.70;99.90;;;;;;7364231;19;20023;-43
2022/11/17 13:16:36;;;;;;;9.98;6.90;;;9.70;99.90;;;;;;7364524;19;20034;-52
2022/11/17 13:19:28;;;;;;;14.32;6.70;;;9.80;99.90;;;;;;7362071;19;20022;-52
2022/11/17 13:22:12;;;;;;;7.07;5.60;;;9.80;99.90;;;;;;7361393;19;20074;-52
2022/11/17 13:24:42;;;;;;;12.48;6.70;;;9.80;99.90;;;;;;7364623;19;20007;-43
2022/11/17 13:27:44;;;;;;;12.40;9.27;;;9.80;99.90;;;;;;7361740;19;20042;-42
2022/11/17 13:30:25;;;;;;;13.10;7.70;;;9.80;99.90;;;;;;7366609;19;20078;-43
2022/11/17 13:32:51;;;;;;;10.93;6.45;;;9.90;99.90;;;;;;7362236;19;20411;-43
2022/11/17 13:35:23;;;;;;;12.50;6.95;;;9.90;99.90;;;;;;7360914;19;20026;-52
2022/11/17 13:38:03;;;;;;;;;;;9.90;99.90;;;;;;7359197;19;20019;-50
2022/11/17 13:40:32;;;;;;;10.95;7.32;;;9.90;99.90;;;;;;7360653;19;19929;-48
2022/11/17 13:43:07;;;;;;;14.85;8.80;;;9.90;99.90;;;;;;7360711;19;20791;-41
2022/11/17 13:45:37;;;;;;;11.15;9.23;;;9.90;99.90;;;;;;7357920;19;20326;-42